createdAt,value
2017-11-16T00:00:24.534Z,18.33
2017-11-16T00:02:52.096Z,19.03
2017-11-16T00:05:19.674Z,16.50
2017-11-16T00:07:48.083Z,18.90
2017-11-16T00:10:15.814Z,20.83
2017-11-16T00:12:44.187Z,19.43
2017-11-16T00:15:12.528Z,18.07
2017-11-16T00:17:40.083Z,20.87
2017-11-16T00:20:07.805Z,17.60
2017-11-16T00:22:36.139Z,22.30
2017-11-16T00:25:03.751Z,24.67
2017-11-16T00:27:32.094Z,24.43
2017-11-16T00:29:59.753Z,23.50
2017-11-16T00:45:27.434Z,22.83
2017-11-16T00:47:55.806Z,23.10
2017-11-16T00:50:23.510Z,24.83
2017-11-16T00:52:51.167Z,25.63
2017-11-16T00:55:19.671Z,25.93
2017-11-16T00:57:47.273Z,23.90
2017-11-16T01:00:14.840Z,24.93
2017-11-16T01:15:42.466Z,23.60
2017-11-16T01:18:10.061Z,27.30
2017-11-16T01:20:38.401Z,22.17
2017-11-16T01:23:06.010Z,21.73
2017-11-16T01:25:33.596Z,24.43
2017-11-16T01:28:01.221Z,24.43
2017-11-16T01:30:29.560Z,27.17
2017-11-16T01:32:57.180Z,23.87
2017-11-16T01:35:24.760Z,29.00
2017-11-16T01:37:52.344Z,24.80
2017-11-16T01:40:19.940Z,22.40
2017-11-16T01:42:48.294Z,23.33
2017-11-16T01:45:15.891Z,25.00
2017-11-16T01:47:44.272Z,23.17
2017-11-16T01:50:12.628Z,26.40
2017-11-16T01:52:40.232Z,22.10
2017-11-16T01:55:07.859Z,27.60
2017-11-16T01:57:37.240Z,22.43
2017-11-16T02:00:04.834Z,24.07
2017-11-16T02:02:40.114Z,25.87
2017-11-16T02:05:07.696Z,25.80
2017-11-16T02:07:35.294Z,20.73
2017-11-16T02:10:03.741Z,22.93
2017-11-16T02:12:31.299Z,26.33
2017-11-16T02:14:58.888Z,27.07
2017-11-16T02:17:26.482Z,25.07
2017-11-16T02:19:54.071Z,23.47
2017-11-16T02:22:21.676Z,26.67
2017-11-16T02:24:50.032Z,26.30
2017-11-16T02:27:17.604Z,22.67
2017-11-16T02:29:45.182Z,22.83
2017-11-16T02:32:13.538Z,21.73
2017-11-16T02:34:41.350Z,27.30
2017-11-16T02:37:09.256Z,24.57
2017-11-16T02:39:36.810Z,23.50
2017-11-16T02:42:04.365Z,26.80
2017-11-16T02:44:31.924Z,23.43
2017-11-16T02:46:59.639Z,20.93
2017-11-16T02:49:27.963Z,23.40
2017-11-16T02:51:55.526Z,21.10
2017-11-16T02:54:23.087Z,22.43
2017-11-16T02:56:50.677Z,24.90
2017-11-16T02:59:18.263Z,20.77
2017-11-16T03:01:45.825Z,21.73
2017-11-16T03:04:13.371Z,23.67
2017-11-16T03:06:40.995Z,26.77
2017-11-16T03:09:08.578Z,26.30
2017-11-16T03:11:36.195Z,25.77
2017-11-16T03:14:03.764Z,21.70
2017-11-16T03:16:31.340Z,25.03
2017-11-16T03:18:58.918Z,26.77
2017-11-16T03:21:26.535Z,23.47
2017-11-16T03:23:54.107Z,23.60
2017-11-16T03:26:21.764Z,22.13
2017-11-16T03:28:49.339Z,26.97
2017-11-16T03:31:16.984Z,22.07
2017-11-16T03:33:44.652Z,22.30
2017-11-16T03:36:12.212Z,24.77
2017-11-16T03:38:39.792Z,25.10
2017-11-16T03:41:07.355Z,24.17
2017-11-16T03:43:34.936Z,22.17
2017-11-16T03:46:02.515Z,23.20
2017-11-16T03:48:30.139Z,25.43
2017-11-16T03:50:57.722Z,23.60
2017-11-16T03:53:25.297Z,28.03
2017-11-16T03:55:52.887Z,23.80
2017-11-16T03:58:21.220Z,23.00
2017-11-16T04:00:48.832Z,20.93
2017-11-16T04:03:16.400Z,23.77
2017-11-16T04:05:44.008Z,21.10
2017-11-16T04:08:11.601Z,22.67
2017-11-16T04:10:39.916Z,22.93
2017-11-16T04:13:07.606Z,22.73
2017-11-16T04:15:35.197Z,23.60
2017-11-16T04:18:03.533Z,25.53
2017-11-16T04:20:31.100Z,29.60
2017-11-16T04:22:58.798Z,27.43
2017-11-16T04:25:27.153Z,19.70
2017-11-16T04:27:54.743Z,20.17
2017-11-16T04:30:23.120Z,25.37
2017-11-16T04:32:51.452Z,26.17
2017-11-16T04:35:19.044Z,22.90
2017-11-16T04:37:46.594Z,22.17
2017-11-16T04:40:14.225Z,20.63
2017-11-16T04:42:41.899Z,21.40
2017-11-16T04:45:09.459Z,17.23
2017-11-16T04:47:37.043Z,25.23
2017-11-16T04:50:04.607Z,17.93
2017-11-16T04:52:32.182Z,19.43
2017-11-16T04:54:59.740Z,21.50
2017-11-16T04:57:27.347Z,19.30
2017-11-16T04:59:54.922Z,21.50
2017-11-16T05:02:22.614Z,31.53
2017-11-16T05:04:50.212Z,27.40
2017-11-16T05:07:18.536Z,24.37
2017-11-16T05:09:46.124Z,21.57
2017-11-16T05:12:13.701Z,22.40
2017-11-16T05:14:42.079Z,18.60
2017-11-16T05:17:10.450Z,22.23
2017-11-16T05:19:38.021Z,19.17
2017-11-16T05:22:06.373Z,19.73
2017-11-16T05:24:34.234Z,21.50
2017-11-16T05:27:01.795Z,22.90
2017-11-16T05:29:29.363Z,22.67
2017-11-16T05:31:56.939Z,19.17
2017-11-16T05:34:24.528Z,19.10
2017-11-16T05:36:52.110Z,16.90
2017-11-16T05:39:19.782Z,23.50
2017-11-16T05:41:47.355Z,21.37
2017-11-16T05:44:14.995Z,22.00
2017-11-16T05:46:42.564Z,20.60
2017-11-16T05:49:10.916Z,24.30
2017-11-16T05:51:38.491Z,21.13
2017-11-16T05:54:06.180Z,25.23
2017-11-16T05:56:33.734Z,17.17
2017-11-16T05:59:01.631Z,19.93
2017-11-16T06:01:29.194Z,21.13
2017-11-16T06:03:56.849Z,21.00
2017-11-16T06:06:24.460Z,20.20
2017-11-16T06:08:52.047Z,25.00
2017-11-16T06:11:19.643Z,22.83
2017-11-16T06:13:47.211Z,18.20
2017-11-16T06:16:15.608Z,18.50
2017-11-16T06:18:43.942Z,21.37
2017-11-16T06:21:11.500Z,18.33
2017-11-16T06:23:39.076Z,46.77
2017-11-16T06:26:06.656Z,23.17
2017-11-16T06:28:34.972Z,26.13
2017-11-16T06:31:02.553Z,23.83
2017-11-16T06:33:30.115Z,27.50
2017-11-16T06:35:57.722Z,27.27
2017-11-16T06:38:26.063Z,33.47
2017-11-16T06:40:53.614Z,31.27
2017-11-16T06:43:21.195Z,49.13
2017-11-16T06:45:48.772Z,28.13
2017-11-16T06:48:17.214Z,25.40
2017-11-16T06:50:49.990Z,60.20
2017-11-16T06:53:24.695Z,65.67
2017-11-16T06:55:54.228Z,69.63
2017-11-16T06:58:24.471Z,90.20
2017-11-16T07:00:52.272Z,30.10
2017-11-16T07:03:20.632Z,23.63
2017-11-16T07:05:48.279Z,28.33
2017-11-16T07:08:15.853Z,24.33
2017-11-16T07:10:43.410Z,26.13
2017-11-16T07:13:11.008Z,31.90
2017-11-16T07:15:38.582Z,30.20
2017-11-16T07:18:06.171Z,43.00
2017-11-16T07:20:43.421Z,60.93
2017-11-16T07:23:10.998Z,29.77
2017-11-16T07:25:38.619Z,29.30
2017-11-16T07:28:20.966Z,56.40
2017-11-16T07:33:22.715Z,35.73
2017-11-16T07:35:51.062Z,47.33
2017-11-16T07:38:20.345Z,29.97
2017-11-16T07:40:50.721Z,35.87
2017-11-16T07:43:19.056Z,34.70
2017-11-16T07:45:47.519Z,35.87
2017-11-16T07:48:15.128Z,38.37
2017-11-16T07:50:42.705Z,42.73
2017-11-16T07:53:11.050Z,33.87
2017-11-16T07:55:38.611Z,42.17
2017-11-16T07:58:06.367Z,37.43
2017-11-16T08:00:34.756Z,47.10
2017-11-16T08:03:02.332Z,41.20
2017-11-16T08:05:29.951Z,37.77
2017-11-16T08:07:57.514Z,41.20
2017-11-16T08:10:25.095Z,39.47
2017-11-16T08:12:52.681Z,33.53
2017-11-16T08:15:21.040Z,33.63
2017-11-16T08:17:48.608Z,36.93
2017-11-16T08:20:16.198Z,34.93
2017-11-16T08:22:44.523Z,31.43
2017-11-16T08:25:12.082Z,31.93
2017-11-16T08:27:39.932Z,50.83
2017-11-16T08:30:07.532Z,39.10
2017-11-16T08:32:35.101Z,36.77
2017-11-16T08:35:02.691Z,32.90
2017-11-16T08:37:31.083Z,37.77
2017-11-16T08:39:58.671Z,31.77
2017-11-16T08:42:26.306Z,39.23
2017-11-16T08:44:53.888Z,30.10
2017-11-16T08:47:21.447Z,33.90
2017-11-16T08:49:48.999Z,32.80
2017-11-16T08:52:16.564Z,30.77
2017-11-16T08:54:44.141Z,30.17
2017-11-16T08:57:11.677Z,47.50
2017-11-16T08:59:39.332Z,32.40
2017-11-16T09:02:06.887Z,33.90
2017-11-16T09:04:34.479Z,36.97
2017-11-16T09:07:02.150Z,43.13
2017-11-16T09:09:29.714Z,49.57
2017-11-16T09:11:57.279Z,31.93
2017-11-16T09:14:24.881Z,37.67
2017-11-16T09:16:53.438Z,34.43
2017-11-16T09:19:21.024Z,40.77
2017-11-16T09:21:49.394Z,34.23
2017-11-16T09:24:16.966Z,35.23
2017-11-16T09:26:45.281Z,40.70
2017-11-16T09:29:13.389Z,36.90
2017-11-16T09:31:40.973Z,42.37
2017-11-16T09:34:09.324Z,40.27
2017-11-16T09:36:36.933Z,40.80
2017-11-16T09:39:04.474Z,35.50
2017-11-16T09:41:32.821Z,43.47
2017-11-16T09:44:00.451Z,46.97
2017-11-16T09:46:28.792Z,46.83
2017-11-16T09:48:57.143Z,43.80
2017-11-16T09:51:24.727Z,46.20
2017-11-16T09:53:52.368Z,48.40
2017-11-16T09:56:20.101Z,35.93
2017-11-16T09:58:47.686Z,43.30
2017-11-16T10:01:15.263Z,39.73
2017-11-16T10:03:42.852Z,38.53
2017-11-16T10:06:11.198Z,44.10
2017-11-16T10:08:38.780Z,43.17
2017-11-16T10:11:06.587Z,40.37
2017-11-16T10:13:34.180Z,41.53
2017-11-16T10:16:01.763Z,37.57
2017-11-16T10:18:30.306Z,48.63
2017-11-16T10:20:57.896Z,37.13
2017-11-16T10:23:25.484Z,38.10
2017-11-16T10:25:53.801Z,35.63
2017-11-16T10:28:21.404Z,37.10
2017-11-16T10:30:48.986Z,46.57
2017-11-16T10:33:17.311Z,37.23
2017-11-16T10:35:44.912Z,43.93
2017-11-16T10:38:13.263Z,37.57
2017-11-16T10:40:40.869Z,40.50
2017-11-16T10:43:09.198Z,35.43
2017-11-16T10:45:36.795Z,35.00
2017-11-16T10:48:05.141Z,36.20
2017-11-16T10:50:32.758Z,32.23
2017-11-16T10:53:00.329Z,31.17
2017-11-16T10:55:27.965Z,29.67
2017-11-16T10:57:56.473Z,29.40
2017-11-16T11:00:24.043Z,29.97
2017-11-16T11:02:51.648Z,27.73
2017-11-16T11:05:19.209Z,31.07
2017-11-16T11:07:46.799Z,35.80
2017-11-16T11:10:14.363Z,32.57
2017-11-16T11:12:42.012Z,27.80
2017-11-16T11:15:10.375Z,32.30
2017-11-16T11:17:38.012Z,33.37
2017-11-16T11:20:05.735Z,31.80
2017-11-16T11:22:33.351Z,32.10
2017-11-16T11:25:00.971Z,26.53
2017-11-16T11:27:28.553Z,30.43
2017-11-16T11:29:56.894Z,25.37
2017-11-16T11:32:25.234Z,26.83
2017-11-16T11:34:52.838Z,24.53
2017-11-16T11:37:20.488Z,26.57
2017-11-16T11:39:48.846Z,27.87
2017-11-16T11:42:16.433Z,25.57
2017-11-16T11:44:44.031Z,26.27
2017-11-16T11:47:11.614Z,34.47
2017-11-16T11:49:39.251Z,31.50
2017-11-16T11:52:06.840Z,29.37
2017-11-16T11:54:34.414Z,25.07
2017-11-16T11:57:01.996Z,28.13
2017-11-16T11:59:30.343Z,45.80
2017-11-16T12:01:58.055Z,43.47
2017-11-16T12:04:25.690Z,33.50
2017-11-16T12:06:53.271Z,35.93
2017-11-16T12:09:21.667Z,40.97
2017-11-16T12:11:49.243Z,43.23
2017-11-16T12:14:16.848Z,40.30
2017-11-16T12:16:44.435Z,36.90
2017-11-16T12:19:12.040Z,31.17
2017-11-16T12:21:39.602Z,41.47
2017-11-16T12:24:07.189Z,36.00
2017-11-16T12:26:34.767Z,32.40
2017-11-16T12:29:03.132Z,33.60
2017-11-16T12:31:30.699Z,45.60
2017-11-16T12:33:58.302Z,33.00
2017-11-16T12:36:25.867Z,27.53
2017-11-16T12:38:53.459Z,36.50
2017-11-16T12:41:21.027Z,43.93
2017-11-16T12:43:48.615Z,38.50
2017-11-16T12:46:16.978Z,37.67
2017-11-16T12:49:07.691Z,63.20
2017-11-16T12:51:36.035Z,78.47
2017-11-16T12:54:03.624Z,45.90
2017-11-16T12:56:31.237Z,39.97
2017-11-16T12:58:58.839Z,44.17
2017-11-16T13:01:26.432Z,39.43
2017-11-16T13:03:54.158Z,37.83
2017-11-16T13:06:24.165Z,54.43
2017-11-16T13:08:51.777Z,46.10
2017-11-16T13:11:19.341Z,48.40
2017-11-16T13:13:46.936Z,38.43
2017-11-16T13:16:14.525Z,42.97
2017-11-16T13:18:42.127Z,47.60
2017-11-16T13:21:09.748Z,32.53
2017-11-16T13:23:37.354Z,43.10
2017-11-16T13:26:07.112Z,37.00
2017-11-16T13:28:34.682Z,39.40
2017-11-16T13:31:02.468Z,41.03
2017-11-16T13:33:30.834Z,32.13
2017-11-16T13:35:58.437Z,34.17
2017-11-16T13:38:26.041Z,35.63
2017-11-16T13:40:53.679Z,33.43
2017-11-16T13:43:21.254Z,38.13
2017-11-16T13:45:49.304Z,40.43
2017-11-16T13:48:16.939Z,37.83
2017-11-16T13:50:45.659Z,35.07
2017-11-16T13:53:14.038Z,34.63
2017-11-16T13:55:41.651Z,39.57
2017-11-16T13:58:10.019Z,33.57
2017-11-16T14:00:37.619Z,45.33
2017-11-16T14:03:05.221Z,39.17
2017-11-16T14:05:32.838Z,38.43
2017-11-16T14:08:00.481Z,31.50
2017-11-16T14:10:28.831Z,36.43
2017-11-16T14:12:56.443Z,34.87
2017-11-16T14:15:24.038Z,40.70
2017-11-16T14:17:52.411Z,36.40
2017-11-16T14:20:20.029Z,35.70
2017-11-16T14:22:48.377Z,35.33
2017-11-16T14:25:15.974Z,36.87
2017-11-16T14:27:44.303Z,34.60
2017-11-16T14:30:11.912Z,30.20
2017-11-16T14:32:40.261Z,35.07
2017-11-16T14:35:07.872Z,37.10
2017-11-16T14:37:35.466Z,39.60
2017-11-16T14:40:03.063Z,34.27
2017-11-16T14:42:30.672Z,33.47
2017-11-16T14:44:58.356Z,31.30
2017-11-16T14:47:25.958Z,35.80
2017-11-16T14:49:54.284Z,33.77
2017-11-16T14:52:21.894Z,33.73
2017-11-16T14:54:49.516Z,39.37
2017-11-16T14:57:17.088Z,42.20
2017-11-16T14:59:44.711Z,32.87
2017-11-16T15:02:12.319Z,29.00
2017-11-16T15:04:39.943Z,30.10
2017-11-16T15:07:07.540Z,32.23
2017-11-16T15:09:35.156Z,47.03
2017-11-16T15:12:02.720Z,28.60
2017-11-16T15:14:30.290Z,33.73
2017-11-16T15:16:58.664Z,32.90
2017-11-16T15:19:26.254Z,49.00
2017-11-16T15:21:53.908Z,31.37
2017-11-16T15:24:21.499Z,28.80
2017-11-16T15:26:49.112Z,36.03
2017-11-16T15:29:17.479Z,35.63
2017-11-16T15:31:45.070Z,28.37
2017-11-16T15:34:12.869Z,30.20
2017-11-16T15:36:40.464Z,32.60
2017-11-16T15:39:08.084Z,36.40
2017-11-16T15:41:35.682Z,37.77
2017-11-16T15:44:03.263Z,31.37
2017-11-16T15:46:30.854Z,36.13
2017-11-16T15:48:58.459Z,40.97
2017-11-16T15:51:26.816Z,32.60
2017-11-16T15:53:54.419Z,26.43
2017-11-16T15:56:21.997Z,31.93
2017-11-16T15:58:49.622Z,31.03
2017-11-16T16:01:18.005Z,33.43
2017-11-16T16:03:45.647Z,34.60
2017-11-16T16:06:14.040Z,36.07
2017-11-16T16:08:42.373Z,32.17
2017-11-16T16:11:09.981Z,31.73
2017-11-16T16:13:39.312Z,35.50
2017-11-16T16:29:06.954Z,39.33
2017-11-16T16:31:34.577Z,48.47
2017-11-16T16:34:02.148Z,38.87
2017-11-16T16:36:30.513Z,35.70
2017-11-16T16:38:58.148Z,32.27
2017-11-16T16:41:25.740Z,44.07
2017-11-16T16:43:53.335Z,38.23
2017-11-16T16:46:20.970Z,38.93
2017-11-16T16:48:49.396Z,42.60
2017-11-16T16:51:16.983Z,29.97
2017-11-16T16:53:45.487Z,36.37
2017-11-16T16:56:14.253Z,29.17
2017-11-16T16:58:41.828Z,34.63
2017-11-16T17:01:09.432Z,28.67
2017-11-16T17:03:38.766Z,33.93
2017-11-16T17:06:06.371Z,34.73
2017-11-16T17:08:33.943Z,37.23
2017-11-16T17:11:02.458Z,44.60
2017-11-16T17:13:30.052Z,33.37
2017-11-16T17:15:58.457Z,33.27
2017-11-16T17:18:26.056Z,33.50
2017-11-16T17:20:53.636Z,35.37
2017-11-16T17:23:22.057Z,32.80
2017-11-16T17:25:49.723Z,40.07
2017-11-16T17:28:22.380Z,37.77
2017-11-16T17:30:50.088Z,41.13
2017-11-16T17:33:17.719Z,43.27
2017-11-16T17:35:45.301Z,44.07
2017-11-16T17:38:13.714Z,37.53
2017-11-16T17:40:42.254Z,45.10
2017-11-16T17:43:09.900Z,44.33
2017-11-16T17:45:38.236Z,47.13
2017-11-16T17:48:06.677Z,41.20
2017-11-16T17:50:35.680Z,50.07
2017-11-16T17:53:04.092Z,41.10
2017-11-16T17:55:33.669Z,45.60
2017-11-16T17:58:01.541Z,42.23
2017-11-16T18:00:29.904Z,35.90
2017-11-16T18:02:58.050Z,37.80
2017-11-16T18:05:25.738Z,48.77
2017-11-16T18:07:53.345Z,55.50
2017-11-16T18:10:23.020Z,44.23
2017-11-16T18:12:51.463Z,50.87
2017-11-16T18:15:20.259Z,43.43
2017-11-16T18:17:47.872Z,52.33
2017-11-16T18:20:17.056Z,45.13
2017-11-16T18:22:48.443Z,46.23
2017-11-16T18:25:16.886Z,52.10
2017-11-16T18:27:46.019Z,47.77
2017-11-16T18:30:14.380Z,49.13
2017-11-16T18:32:42.000Z,53.80
2017-11-16T18:35:10.545Z,49.60
2017-11-16T18:37:38.980Z,48.47
2017-11-16T18:40:07.998Z,53.13
2017-11-16T18:42:38.962Z,43.33
2017-11-16T18:45:06.604Z,53.87
2017-11-16T18:47:36.213Z,51.17
2017-11-16T18:50:03.937Z,48.27
2017-11-16T18:52:31.582Z,42.53
2017-11-16T18:54:59.241Z,40.33
2017-11-16T18:57:26.816Z,43.90
2017-11-16T18:59:56.080Z,54.47
2017-11-16T19:02:23.684Z,63.70
2017-11-16T19:04:51.332Z,52.67
2017-11-16T19:07:19.033Z,65.40
2017-11-16T19:09:47.405Z,52.67
2017-11-16T19:12:15.796Z,62.93
2017-11-16T19:14:44.285Z,59.43
2017-11-16T19:17:12.622Z,54.20
2017-11-16T19:19:40.291Z,47.07
2017-11-16T19:22:07.934Z,56.73
2017-11-16T19:24:35.594Z,62.13
2017-11-16T19:27:05.772Z,52.10
2017-11-16T19:29:33.332Z,71.77
2017-11-16T19:32:01.716Z,46.43
2017-11-16T19:34:30.150Z,50.20
2017-11-16T19:36:58.650Z,51.57
2017-11-16T19:39:27.986Z,67.77
2017-11-16T19:41:56.906Z,50.97
2017-11-16T19:44:24.479Z,53.33
2017-11-16T19:46:52.138Z,47.17
2017-11-16T19:49:19.927Z,46.07
2017-11-16T19:51:48.397Z,57.13
2017-11-16T19:54:16.959Z,50.70
2017-11-16T19:56:44.567Z,59.23
2017-11-16T19:59:12.175Z,51.93
2017-11-16T20:01:40.657Z,53.67
2017-11-16T20:04:11.296Z,52.80
2017-11-16T20:06:46.511Z,77.60
2017-11-16T20:09:14.443Z,51.30
2017-11-16T20:11:43.884Z,61.60
2017-11-16T20:14:12.309Z,66.83
2017-11-16T20:16:39.996Z,58.20
2017-11-16T20:19:07.600Z,55.10
2017-11-16T20:21:37.029Z,63.77
2017-11-16T20:24:04.704Z,53.60
2017-11-16T20:26:32.391Z,53.17
2017-11-16T20:29:00.967Z,59.87
2017-11-16T20:31:28.619Z,57.00
2017-11-16T20:33:56.355Z,65.73
2017-11-16T20:36:24.842Z,57.87
2017-11-16T20:39:09.180Z,70.37
2017-11-16T20:41:51.744Z,60.53
2017-11-16T20:44:38.605Z,66.87
2017-11-16T20:47:14.357Z,54.93
2017-11-16T20:49:47.601Z,69.43
2017-11-16T20:52:15.305Z,66.70
2017-11-16T20:54:42.964Z,75.67
2017-11-16T20:57:11.546Z,63.20
2017-11-16T20:59:40.017Z,62.00
2017-11-16T21:02:08.370Z,61.83
2017-11-16T21:04:36.069Z,65.33
2017-11-16T21:07:03.783Z,62.53
2017-11-16T21:09:35.157Z,81.47
2017-11-16T21:12:02.761Z,85.53
2017-11-16T21:14:31.375Z,68.33
2017-11-16T21:17:00.008Z,75.13
2017-11-16T21:19:30.321Z,88.20
2017-11-16T21:21:59.945Z,67.93
2017-11-16T21:24:29.183Z,70.73
2017-11-16T21:26:56.864Z,82.30
2017-11-16T21:29:24.491Z,68.57
2017-11-16T21:31:52.940Z,86.33
2017-11-16T21:34:21.312Z,88.63
2017-11-16T21:36:49.689Z,75.30
2017-11-16T21:39:17.363Z,69.87
2017-11-16T21:41:45.811Z,81.40
2017-11-16T21:44:16.896Z,69.20
2017-11-16T21:46:44.539Z,60.80
2017-11-16T21:49:13.041Z,63.47
2017-11-16T21:51:41.399Z,73.10
2017-11-16T21:54:09.013Z,70.97
2017-11-16T21:56:36.632Z,68.27
2017-11-16T21:59:04.219Z,61.70
2017-11-16T22:01:32.704Z,74.33
2017-11-16T22:04:01.397Z,72.97
2017-11-16T22:06:29.697Z,70.87
2017-11-16T22:08:57.306Z,71.93
2017-11-16T22:11:26.155Z,79.10
2017-11-16T22:13:54.649Z,71.03
2017-11-16T22:16:22.315Z,82.77
2017-11-16T22:18:52.917Z,81.53
2017-11-16T22:21:20.549Z,73.33
2017-11-16T22:23:48.914Z,64.90
2017-11-16T22:26:17.636Z,74.57
2017-11-16T22:28:45.306Z,78.60
2017-11-16T22:31:12.916Z,69.60
2017-11-16T22:33:40.488Z,84.60
2017-11-16T22:36:08.854Z,93.77
2017-11-16T22:38:36.563Z,78.13
2017-11-16T22:41:04.184Z,85.30
2017-11-16T22:43:31.765Z,77.10
2017-11-16T22:46:00.095Z,87.23
2017-11-16T22:48:27.712Z,99.33
2017-11-16T22:50:55.290Z,90.13
2017-11-16T22:53:23.292Z,95.63
2017-11-16T22:55:50.847Z,78.60
2017-11-16T22:58:18.435Z,90.67
2017-11-16T23:00:46.016Z,85.93
2017-11-16T23:03:14.372Z,96.93
2017-11-16T23:05:41.961Z,91.50
2017-11-16T23:08:10.355Z,88.20
2017-11-16T23:10:38.034Z,92.43
2017-11-16T23:13:05.654Z,93.67
2017-11-16T23:15:34.006Z,87.57
2017-11-16T23:18:03.550Z,106.57
2017-11-16T23:20:31.958Z,95.40
2017-11-16T23:23:03.459Z,89.23
2017-11-16T23:25:31.055Z,88.27
2017-11-16T23:27:58.676Z,103.30
2017-11-16T23:30:26.251Z,83.67
2017-11-16T23:32:53.838Z,89.50
2017-11-16T23:35:21.419Z,87.53
2017-11-16T23:37:49.020Z,98.37
2017-11-16T23:40:16.619Z,85.33
2017-11-16T23:42:44.207Z,84.10
2017-11-16T23:45:11.785Z,83.60
2017-11-16T23:47:40.194Z,82.27
2017-11-16T23:50:07.884Z,81.17
2017-11-16T23:52:36.421Z,86.67
2017-11-16T23:55:04.000Z,81.73
2017-11-16T23:57:31.591Z,89.87
2017-11-16T23:59:59.184Z,93.57
